createdAt,value
2017-10-29T00:00:35.241Z,95.50
2017-10-29T00:03:02.728Z,95.40
2017-10-29T00:05:30.209Z,95.10
2017-10-29T00:07:57.689Z,95.20
2017-10-29T00:10:25.175Z,95.20
2017-10-29T00:12:52.630Z,95.20
2017-10-29T00:15:20.114Z,95.30
2017-10-29T00:17:47.579Z,95.20
2017-10-29T00:20:15.052Z,95.20
2017-10-29T00:22:42.510Z,95.20
2017-10-29T00:25:10.552Z,95.20
2017-10-29T00:27:38.019Z,95.20
2017-10-29T00:30:05.509Z,95.20
2017-10-29T00:32:32.965Z,95.10
2017-10-29T00:35:00.441Z,95.10
2017-10-29T00:37:27.921Z,95.20
2017-10-29T00:39:56.145Z,95.30
2017-10-29T00:42:24.377Z,95.30
2017-10-29T00:44:52.613Z,95.30
2017-10-29T00:47:20.103Z,95.30
2017-10-29T00:49:48.332Z,95.40
2017-10-29T00:52:15.872Z,95.40
2017-10-29T00:54:43.356Z,95.40
2017-10-29T00:57:11.033Z,95.30
2017-10-29T00:59:38.591Z,95.50
2017-10-29T01:02:06.134Z,95.60
2017-10-29T01:04:33.616Z,95.70
2017-10-29T01:07:01.097Z,95.70
2017-10-29T01:09:29.453Z,95.90
2017-10-29T01:11:56.939Z,95.90
2017-10-29T01:14:25.181Z,96.10
2017-10-29T01:16:52.646Z,96.10
2017-10-29T01:19:20.109Z,96.10
2017-10-29T01:21:48.493Z,95.90
2017-10-29T01:24:16.761Z,95.80
2017-10-29T01:26:44.211Z,95.80
2017-10-29T01:29:11.685Z,95.90
2017-10-29T01:31:41.386Z,96.00
2017-10-29T01:34:09.609Z,96.00
2017-10-29T01:36:37.101Z,96.00
2017-10-29T01:39:04.549Z,96.20
2017-10-29T01:41:32.043Z,96.10
2017-10-29T01:44:00.284Z,96.20
2017-10-29T01:46:27.749Z,96.20
2017-10-29T01:48:55.235Z,96.40
2017-10-29T01:51:22.730Z,96.40
2017-10-29T01:53:50.193Z,96.60
2017-10-29T01:56:17.687Z,96.40
2017-10-29T01:58:45.917Z,96.80
2017-10-29T02:01:13.407Z,96.50
2017-10-29T02:03:40.857Z,96.40
2017-10-29T02:06:08.334Z,96.50
2017-10-29T02:08:35.829Z,96.40
2017-10-29T02:11:03.436Z,96.40
2017-10-29T02:13:31.689Z,96.30
2017-10-29T02:15:59.154Z,96.40
2017-10-29T02:18:26.630Z,96.40
2017-10-29T02:20:54.601Z,96.30
2017-10-29T02:23:22.091Z,96.40
2017-10-29T02:25:49.562Z,96.50
2017-10-29T02:28:17.046Z,96.40
2017-10-29T02:30:44.502Z,96.40
2017-10-29T02:33:11.981Z,96.50
2017-10-29T02:35:39.447Z,96.50
2017-10-29T02:38:07.702Z,96.40
2017-10-29T02:40:35.178Z,96.40
2017-10-29T02:43:02.636Z,96.20
2017-10-29T02:45:30.117Z,96.40
2017-10-29T02:47:57.581Z,96.30
2017-10-29T02:50:25.066Z,96.50
2017-10-29T02:52:52.538Z,96.50
2017-10-29T02:55:20.139Z,96.30
2017-10-29T02:57:48.357Z,96.30
2017-10-29T03:00:15.841Z,96.30
2017-10-29T03:02:43.302Z,96.20
2017-10-29T03:05:10.761Z,96.20
2017-10-29T03:07:38.241Z,95.70
2017-10-29T03:10:06.469Z,95.60
2017-10-29T03:12:33.954Z,95.60
2017-10-29T03:15:02.181Z,95.50
2017-10-29T03:17:29.885Z,95.50
2017-10-29T03:19:57.355Z,95.40
2017-10-29T03:22:25.598Z,95.20
2017-10-29T03:24:53.055Z,95.20
2017-10-29T03:27:20.596Z,95.10
2017-10-29T03:29:48.071Z,94.60
2017-10-29T03:32:15.525Z,94.60
2017-10-29T03:34:43.121Z,94.40
2017-10-29T03:37:11.341Z,94.80
2017-10-29T03:39:38.814Z,94.80
2017-10-29T03:42:06.280Z,94.70
2017-10-29T03:44:33.758Z,94.90
2017-10-29T03:47:01.226Z,94.30
2017-10-29T03:49:28.689Z,93.80
2017-10-29T03:51:57.047Z,93.60
2017-10-29T03:54:25.314Z,93.70
2017-10-29T03:56:54.305Z,93.40
2017-10-29T03:59:21.771Z,93.40
2017-10-29T04:01:49.253Z,93.40
2017-10-29T04:04:17.477Z,92.80
2017-10-29T04:06:44.977Z,92.80
2017-10-29T04:09:13.187Z,92.20
2017-10-29T04:11:40.660Z,92.20
2017-10-29T04:14:08.245Z,91.90
2017-10-29T04:16:35.818Z,92.40
2017-10-29T04:19:04.040Z,93.20
2017-10-29T04:21:31.521Z,93.20
2017-10-29T04:23:58.986Z,93.50
2017-10-29T04:26:26.470Z,93.80
2017-10-29T04:28:54.699Z,93.80
2017-10-29T04:31:22.271Z,93.80
2017-10-29T04:33:49.796Z,94.00
2017-10-29T04:36:17.320Z,94.10
2017-10-29T04:38:45.581Z,94.60
2017-10-29T04:41:13.046Z,94.60
2017-10-29T04:43:41.295Z,95.10
2017-10-29T04:46:08.742Z,95.10
2017-10-29T04:48:36.324Z,95.20
2017-10-29T04:51:03.788Z,94.80
2017-10-29T04:53:31.268Z,94.50
2017-10-29T04:55:58.755Z,94.60
2017-10-29T04:58:26.222Z,94.60
2017-10-29T05:00:53.705Z,94.60
2017-10-29T05:03:21.174Z,93.30
2017-10-29T05:05:48.654Z,93.20
2017-10-29T05:08:16.888Z,92.80
2017-10-29T05:10:44.350Z,92.80
2017-10-29T05:13:11.914Z,92.90
2017-10-29T05:15:39.877Z,92.50
2017-10-29T05:18:07.394Z,92.60
2017-10-29T05:20:35.004Z,92.70
2017-10-29T05:23:02.678Z,91.60
2017-10-29T05:25:30.953Z,91.70
2017-10-29T05:27:59.170Z,92.10
2017-10-29T05:30:26.649Z,91.80
2017-10-29T05:32:54.129Z,91.90
2017-10-29T05:35:21.593Z,91.60
2017-10-29T05:37:49.133Z,91.20
2017-10-29T05:40:16.617Z,91.10
2017-10-29T05:42:44.869Z,90.50
2017-10-29T05:45:12.387Z,90.50
2017-10-29T05:47:39.855Z,90.50
2017-10-29T05:50:07.336Z,90.40
2017-10-29T05:52:34.792Z,90.20
2017-10-29T05:55:02.277Z,89.60
2017-10-29T05:57:30.513Z,89.00
2017-10-29T05:59:58.501Z,89.00
2017-10-29T06:02:26.144Z,89.10
2017-10-29T06:04:53.644Z,89.00
2017-10-29T06:07:21.887Z,89.10
2017-10-29T06:09:49.349Z,89.10
2017-10-29T06:12:16.837Z,89.00
2017-10-29T06:14:45.588Z,87.80
2017-10-29T06:17:13.058Z,87.80
2017-10-29T06:19:40.532Z,88.10
2017-10-29T06:22:08.761Z,87.00
2017-10-29T06:24:36.238Z,87.00
2017-10-29T06:27:05.225Z,84.50
2017-10-29T06:29:32.714Z,84.40
2017-10-29T06:32:00.949Z,85.10
2017-10-29T06:34:28.416Z,85.10
2017-10-29T06:36:55.907Z,85.30
2017-10-29T06:39:24.164Z,85.50
2017-10-29T06:41:52.426Z,84.60
2017-10-29T06:44:19.897Z,85.10
2017-10-29T06:46:47.377Z,85.20
2017-10-29T06:49:14.832Z,83.70
2017-10-29T06:51:42.327Z,83.20
2017-10-29T06:54:09.797Z,83.00
2017-10-29T06:56:37.276Z,83.10
2017-10-29T06:59:04.733Z,83.60
2017-10-29T07:01:32.221Z,82.80
2017-10-29T07:03:59.814Z,82.70
2017-10-29T07:06:27.283Z,81.60
2017-10-29T07:08:54.772Z,81.50
2017-10-29T07:11:23.070Z,81.00
2017-10-29T07:13:51.313Z,80.10
2017-10-29T07:16:18.779Z,80.10
2017-10-29T07:18:46.249Z,78.70
2017-10-29T07:21:14.986Z,71.80
2017-10-29T07:23:42.473Z,71.80
2017-10-29T07:26:09.928Z,69.30
2017-10-29T07:28:37.406Z,68.80
2017-10-29T07:31:05.657Z,63.70
2017-10-29T07:33:33.163Z,63.50
2017-10-29T07:36:00.627Z,64.30
2017-10-29T07:38:28.108Z,65.20
2017-10-29T07:40:55.585Z,64.30
2017-10-29T07:43:23.046Z,63.40
2017-10-29T07:45:50.533Z,64.40
2017-10-29T07:48:18.753Z,65.70
2017-10-29T07:50:46.253Z,65.70
2017-10-29T07:53:14.495Z,66.70
2017-10-29T07:55:41.966Z,66.70
2017-10-29T07:58:09.525Z,67.50
2017-10-29T08:00:36.998Z,68.10
2017-10-29T08:03:05.334Z,67.90
2017-10-29T08:05:32.822Z,67.80
2017-10-29T08:08:00.346Z,67.50
2017-10-29T08:10:27.795Z,67.10
2017-10-29T08:12:55.285Z,68.00
2017-10-29T08:15:22.953Z,67.90
2017-10-29T08:17:50.428Z,68.20
2017-10-29T08:20:18.657Z,68.50
2017-10-29T08:22:46.161Z,68.30
2017-10-29T08:25:14.391Z,69.80
2017-10-29T08:27:41.912Z,69.20
2017-10-29T08:30:09.402Z,69.30
2017-10-29T08:32:36.885Z,68.00
2017-10-29T08:35:04.367Z,69.30
2017-10-29T08:37:32.629Z,68.60
2017-10-29T08:40:00.098Z,68.60
2017-10-29T08:42:28.356Z,68.40
2017-10-29T08:44:55.833Z,68.40
2017-10-29T08:47:24.090Z,73.80
2017-10-29T08:49:52.421Z,68.60
2017-10-29T08:52:19.948Z,68.60
2017-10-29T08:54:48.192Z,67.50
2017-10-29T08:57:15.678Z,67.40
2017-10-29T08:59:43.994Z,67.50
2017-10-29T09:02:11.495Z,67.50
2017-10-29T09:04:39.776Z,68.60
2017-10-29T09:07:08.028Z,67.30
2017-10-29T09:09:35.507Z,67.20
2017-10-29T09:12:03.840Z,68.00
2017-10-29T09:14:31.312Z,67.90
2017-10-29T09:16:58.802Z,67.70
2017-10-29T09:19:27.057Z,66.90
2017-10-29T09:21:54.538Z,66.90
2017-10-29T09:24:22.765Z,64.70
2017-10-29T09:26:50.237Z,64.70
2017-10-29T09:29:17.730Z,66.70
2017-10-29T09:31:45.990Z,65.50
2017-10-29T09:34:13.452Z,65.50
2017-10-29T09:36:41.902Z,66.00
2017-10-29T09:39:09.516Z,66.00
2017-10-29T09:41:36.959Z,66.10
2017-10-29T09:44:05.184Z,65.90
2017-10-29T09:46:32.646Z,65.90
2017-10-29T09:49:00.414Z,66.80
2017-10-29T09:51:27.945Z,66.30
2017-10-29T09:53:55.401Z,66.20
2017-10-29T09:56:22.893Z,66.20
2017-10-29T09:58:50.357Z,65.40
2017-10-29T10:01:17.829Z,65.40
2017-10-29T10:03:46.093Z,65.00
2017-10-29T10:06:13.549Z,64.80
2017-10-29T10:08:41.071Z,63.90
2017-10-29T10:11:08.538Z,64.50
2017-10-29T10:13:36.024Z,64.70
2017-10-29T10:16:03.485Z,64.20
2017-10-29T10:18:31.715Z,64.60
2017-10-29T10:20:59.206Z,63.90
2017-10-29T10:23:27.289Z,63.80
2017-10-29T10:25:55.560Z,67.80
2017-10-29T10:28:23.024Z,67.10
2017-10-29T10:30:51.297Z,66.90
2017-10-29T10:33:18.774Z,67.00
2017-10-29T10:35:47.029Z,67.30
2017-10-29T10:38:14.649Z,67.30
2017-10-29T10:40:42.121Z,70.70
2017-10-29T10:43:09.788Z,73.10
2017-10-29T10:45:37.249Z,75.60
2017-10-29T10:48:05.511Z,75.60
2017-10-29T10:50:32.972Z,75.50
2017-10-29T10:53:01.223Z,77.10
2017-10-29T10:55:28.702Z,77.10
2017-10-29T10:57:56.182Z,74.50
2017-10-29T11:00:24.442Z,73.20
2017-10-29T11:02:52.101Z,73.20
2017-10-29T11:05:19.573Z,73.40
2017-10-29T11:07:47.034Z,70.90
2017-10-29T11:10:15.613Z,71.10
2017-10-29T11:12:43.192Z,71.00
2017-10-29T11:15:11.547Z,70.80
2017-10-29T11:17:39.022Z,70.80
2017-10-29T11:20:07.264Z,67.20
2017-10-29T11:22:34.750Z,67.20
2017-10-29T11:25:02.976Z,66.20
2017-10-29T11:27:30.458Z,66.10
2017-10-29T11:29:57.912Z,63.80
2017-10-29T11:32:25.431Z,64.80
2017-10-29T11:34:52.892Z,66.20
2017-10-29T11:37:20.435Z,64.10
2017-10-29T11:39:48.671Z,64.30
2017-10-29T11:42:17.685Z,62.60
2017-10-29T11:44:45.933Z,62.70
2017-10-29T11:47:13.409Z,62.70
2017-10-29T11:49:41.649Z,60.90
2017-10-29T11:52:09.145Z,60.80
2017-10-29T11:54:36.631Z,60.60
2017-10-29T11:57:04.109Z,58.80
2017-10-29T11:59:31.604Z,57.40
2017-10-29T12:01:59.848Z,59.60
2017-10-29T12:04:27.310Z,59.50
2017-10-29T12:06:54.801Z,60.20
2017-10-29T12:09:22.270Z,61.10
2017-10-29T12:11:50.524Z,62.80
2017-10-29T12:14:18.749Z,63.70
2017-10-29T12:16:46.409Z,63.70
2017-10-29T12:19:13.880Z,59.80
2017-10-29T12:21:41.345Z,60.20
2017-10-29T12:24:08.895Z,59.70
2017-10-29T12:26:36.357Z,61.30
2017-10-29T12:29:03.866Z,69.10
2017-10-29T12:31:32.101Z,72.20
2017-10-29T12:33:59.681Z,72.10
2017-10-29T12:36:28.656Z,73.60
2017-10-29T12:38:56.922Z,76.40
2017-10-29T12:41:24.451Z,75.90
2017-10-29T12:43:51.920Z,73.10
2017-10-29T12:46:19.422Z,75.20
2017-10-29T12:48:47.657Z,70.70
2017-10-29T12:51:15.142Z,70.70
2017-10-29T12:53:42.783Z,70.40
2017-10-29T12:56:10.370Z,68.40
2017-10-29T12:58:38.655Z,70.40
2017-10-29T13:01:06.915Z,70.20
2017-10-29T13:03:34.388Z,70.20
2017-10-29T13:06:03.344Z,71.10
2017-10-29T13:08:30.881Z,71.10
2017-10-29T13:10:58.346Z,72.00
2017-10-29T13:13:25.802Z,71.90
2017-10-29T13:15:53.361Z,72.00
2017-10-29T13:18:20.846Z,69.90
2017-10-29T13:20:48.512Z,68.20
2017-10-29T13:23:15.966Z,66.60
2017-10-29T13:25:43.466Z,64.20
2017-10-29T13:28:11.689Z,66.40
2017-10-29T13:30:39.166Z,66.40
2017-10-29T13:33:06.630Z,66.00
2017-10-29T13:35:34.111Z,66.30
2017-10-29T13:38:02.408Z,65.40
2017-10-29T13:40:29.894Z,65.40
2017-10-29T13:42:57.379Z,65.20
2017-10-29T13:45:24.840Z,64.80
2017-10-29T13:47:53.091Z,63.50
2017-10-29T13:50:20.544Z,63.10
2017-10-29T13:52:48.028Z,61.40
2017-10-29T13:55:15.492Z,61.40
2017-10-29T13:57:43.748Z,61.60
2017-10-29T14:00:11.219Z,61.60
2017-10-29T14:02:40.178Z,64.40
2017-10-29T14:05:07.661Z,64.20
2017-10-29T14:07:35.133Z,63.70
2017-10-29T14:10:03.492Z,59.90
2017-10-29T14:12:31.721Z,58.90
2017-10-29T14:14:59.216Z,58.90
2017-10-29T14:17:26.698Z,59.80
2017-10-29T14:19:54.928Z,61.10
2017-10-29T14:22:22.420Z,61.00
2017-10-29T14:24:50.662Z,62.50
2017-10-29T14:27:18.151Z,62.40
2017-10-29T14:29:45.619Z,61.80
2017-10-29T14:32:13.865Z,61.40
2017-10-29T14:34:41.334Z,61.30
2017-10-29T14:37:08.821Z,62.70
2017-10-29T14:39:36.282Z,63.50
2017-10-29T14:42:03.741Z,64.00
2017-10-29T14:44:31.239Z,64.40
2017-10-29T14:46:58.707Z,64.40
2017-10-29T14:49:26.172Z,64.70
2017-10-29T14:51:53.670Z,66.70
2017-10-29T14:54:21.169Z,67.60
2017-10-29T14:56:48.694Z,67.80
2017-10-29T14:59:16.187Z,68.80
2017-10-29T15:01:43.641Z,69.00
2017-10-29T15:04:11.122Z,68.70
2017-10-29T15:06:39.345Z,70.10
2017-10-29T15:09:06.828Z,69.40
2017-10-29T15:11:34.305Z,68.70
2017-10-29T15:14:02.639Z,68.60
2017-10-29T15:16:30.126Z,68.60
2017-10-29T15:18:57.613Z,68.90
2017-10-29T15:21:25.953Z,69.50
2017-10-29T15:23:53.422Z,69.30
2017-10-29T15:26:20.978Z,69.40
2017-10-29T15:28:48.445Z,70.20
2017-10-29T15:31:17.457Z,70.60
2017-10-29T15:33:45.701Z,70.20
2017-10-29T15:36:13.181Z,70.20
2017-10-29T15:38:41.417Z,69.40
2017-10-29T15:41:09.479Z,69.30
2017-10-29T15:43:36.966Z,70.20
2017-10-29T15:46:04.442Z,70.60
2017-10-29T15:48:31.936Z,69.80
2017-10-29T15:50:59.432Z,69.60
2017-10-29T15:53:26.932Z,70.50
2017-10-29T15:55:55.243Z,71.70
2017-10-29T15:58:22.730Z,71.70
2017-10-29T16:00:50.303Z,72.50
2017-10-29T16:03:18.542Z,73.20
2017-10-29T16:05:46.037Z,73.60
2017-10-29T16:08:15.017Z,72.80
2017-10-29T16:10:42.522Z,72.70
2017-10-29T16:13:10.134Z,72.70
2017-10-29T16:15:37.723Z,74.00
2017-10-29T16:18:05.993Z,73.30
2017-10-29T16:20:34.371Z,74.20
2017-10-29T16:23:02.739Z,74.70
2017-10-29T16:25:30.206Z,74.70
2017-10-29T16:27:58.466Z,70.20
2017-10-29T16:30:25.934Z,70.10
2017-10-29T16:32:54.190Z,70.60
2017-10-29T16:35:22.355Z,70.40
2017-10-29T16:37:49.846Z,69.70
2017-10-29T16:40:18.080Z,71.20
2017-10-29T16:42:45.583Z,71.20
2017-10-29T16:45:13.893Z,72.00
2017-10-29T16:47:41.383Z,72.00
2017-10-29T16:50:09.014Z,73.00
2017-10-29T16:52:36.469Z,74.30
2017-10-29T16:55:03.957Z,74.10
2017-10-29T16:57:31.429Z,74.00
2017-10-29T16:59:59.049Z,73.80
2017-10-29T17:02:26.534Z,74.40
2017-10-29T17:04:54.034Z,75.30
2017-10-29T17:07:21.498Z,76.00
2017-10-29T17:09:48.993Z,76.50
2017-10-29T17:12:16.461Z,76.50
2017-10-29T17:14:43.957Z,77.00
2017-10-29T17:17:11.568Z,77.70
2017-10-29T17:19:39.043Z,77.80
2017-10-29T17:22:06.530Z,77.70
2017-10-29T17:24:34.756Z,77.90
2017-10-29T17:27:02.243Z,78.60
2017-10-29T17:29:30.571Z,78.90
2017-10-29T17:31:58.111Z,78.20
2017-10-29T17:34:25.726Z,78.40
2017-10-29T17:36:53.358Z,79.00
2017-10-29T17:39:20.838Z,79.10
2017-10-29T17:41:48.330Z,79.30
2017-10-29T17:44:16.565Z,79.80
2017-10-29T17:46:44.016Z,79.80
2017-10-29T17:49:11.586Z,79.90
2017-10-29T17:51:39.058Z,79.40
2017-10-29T17:54:07.398Z,80.50
2017-10-29T17:56:34.861Z,79.80
2017-10-29T17:59:02.355Z,79.70
2017-10-29T18:01:30.591Z,79.40
2017-10-29T18:03:58.078Z,79.40
2017-10-29T18:06:26.104Z,79.30
2017-10-29T18:08:53.604Z,79.90
2017-10-29T18:11:21.074Z,79.30
2017-10-29T18:13:49.436Z,79.40
2017-10-29T18:16:16.988Z,79.40
2017-10-29T18:18:44.485Z,78.90
2017-10-29T18:21:11.965Z,79.00
2017-10-29T18:23:40.174Z,78.50
2017-10-29T18:26:07.631Z,79.10
2017-10-29T18:28:35.138Z,79.00
2017-10-29T18:31:02.625Z,78.60
2017-10-29T18:33:30.173Z,78.40
2017-10-29T18:35:57.656Z,78.60
2017-10-29T18:38:25.120Z,78.20
2017-10-29T18:40:52.601Z,78.10
2017-10-29T18:43:20.863Z,78.80
2017-10-29T18:45:49.115Z,79.30
2017-10-29T18:48:17.093Z,79.30
2017-10-29T18:50:44.552Z,79.80
2017-10-29T18:53:12.029Z,79.20
2017-10-29T18:55:40.281Z,79.60
2017-10-29T18:58:07.750Z,79.60
2017-10-29T19:00:35.212Z,79.90
2017-10-29T19:03:02.688Z,79.60
2017-10-29T19:05:30.953Z,80.40
2017-10-29T19:07:59.209Z,80.50
2017-10-29T19:10:26.662Z,80.50
2017-10-29T19:12:54.252Z,80.70
2017-10-29T19:15:22.527Z,79.80
2017-10-29T19:17:50.808Z,79.50
2017-10-29T19:20:18.294Z,79.50
2017-10-29T19:22:45.749Z,80.00
2017-10-29T19:25:13.237Z,79.90
2017-10-29T19:27:40.716Z,80.10
2017-10-29T19:30:08.990Z,81.20
2017-10-29T19:32:37.226Z,80.60
2017-10-29T19:35:04.670Z,80.60
2017-10-29T19:37:32.230Z,80.50
2017-10-29T19:39:59.694Z,80.30
2017-10-29T19:42:27.244Z,80.50
2017-10-29T19:44:54.703Z,80.90
2017-10-29T19:47:22.244Z,81.00
2017-10-29T19:49:49.716Z,80.90
2017-10-29T19:52:17.201Z,81.10
2017-10-29T19:54:44.686Z,81.30
2017-10-29T19:57:12.158Z,81.40
2017-10-29T19:59:40.395Z,81.20
2017-10-29T20:02:07.870Z,81.10
2017-10-29T20:04:35.334Z,81.00
2017-10-29T20:07:03.560Z,81.70
2017-10-29T20:09:31.032Z,80.90
2017-10-29T20:11:58.809Z,81.40
2017-10-29T20:14:26.273Z,81.10
2017-10-29T20:16:53.754Z,81.00
2017-10-29T20:19:22.003Z,81.40
2017-10-29T20:21:49.485Z,81.30
2017-10-29T20:24:17.726Z,81.60
2017-10-29T20:26:45.210Z,81.60
2017-10-29T20:29:13.455Z,81.10
2017-10-29T20:31:40.912Z,81.10
2017-10-29T20:34:08.363Z,81.40
2017-10-29T20:36:35.838Z,81.30
2017-10-29T20:39:03.335Z,81.70
2017-10-29T20:41:30.828Z,81.40
2017-10-29T20:43:58.289Z,82.20
2017-10-29T20:46:25.799Z,82.10
2017-10-29T20:48:53.254Z,82.30
2017-10-29T20:51:21.516Z,82.60
2017-10-29T20:53:49.760Z,82.40
2017-10-29T20:56:17.337Z,82.40
2017-10-29T20:58:44.806Z,81.80
2017-10-29T21:01:13.046Z,82.50
2017-10-29T21:03:40.509Z,82.40
2017-10-29T21:06:07.995Z,82.50
2017-10-29T21:08:36.109Z,83.10
2017-10-29T21:11:03.688Z,82.80
2017-10-29T21:13:31.150Z,82.90
2017-10-29T21:15:58.615Z,83.10
2017-10-29T21:18:26.174Z,83.00
2017-10-29T21:20:53.743Z,82.90
2017-10-29T21:23:21.266Z,83.20
2017-10-29T21:25:48.817Z,83.50
2017-10-29T21:28:16.382Z,84.20
2017-10-29T21:30:43.853Z,83.50
2017-10-29T21:33:11.330Z,83.50
2017-10-29T21:35:38.788Z,83.60
2017-10-29T21:38:06.268Z,83.30
2017-10-29T21:40:34.529Z,84.00
2017-10-29T21:43:02.002Z,84.00
2017-10-29T21:45:30.247Z,84.30
2017-10-29T21:47:57.706Z,84.30
2017-10-29T21:50:25.419Z,84.10
2017-10-29T21:52:52.905Z,84.10
2017-10-29T21:55:20.483Z,84.00
2017-10-29T21:57:49.449Z,83.70
2017-10-29T22:00:16.941Z,83.70
2017-10-29T22:02:45.153Z,83.80
2017-10-29T22:05:12.629Z,84.00
2017-10-29T22:07:41.075Z,83.80
2017-10-29T22:10:09.405Z,83.90
2017-10-29T22:12:36.869Z,83.90
2017-10-29T22:15:04.473Z,84.10
2017-10-29T22:17:32.717Z,84.10
2017-10-29T22:20:00.184Z,84.00
2017-10-29T22:22:27.665Z,84.50
2017-10-29T22:24:55.153Z,84.50
2017-10-29T22:27:22.690Z,84.30
2017-10-29T22:29:51.081Z,83.60
2017-10-29T22:32:18.693Z,84.00
2017-10-29T22:34:46.182Z,83.90
2017-10-29T22:37:13.666Z,84.00
2017-10-29T22:39:41.162Z,83.20
2017-10-29T22:42:09.026Z,82.80
2017-10-29T22:44:36.507Z,83.30
2017-10-29T22:47:04.758Z,83.80
2017-10-29T22:49:32.309Z,83.80
2017-10-29T22:51:59.765Z,84.00
2017-10-29T22:54:27.262Z,83.80
2017-10-29T22:56:55.556Z,83.20
2017-10-29T22:59:23.019Z,83.20
2017-10-29T23:01:50.518Z,83.60
2017-10-29T23:04:17.992Z,84.00
2017-10-29T23:06:47.062Z,84.50
2017-10-29T23:09:22.453Z,84.30
2017-10-29T23:11:49.944Z,84.50
2017-10-29T23:14:17.417Z,84.20
2017-10-29T23:16:44.922Z,84.70
2017-10-29T23:19:12.378Z,84.40
2017-10-29T23:21:39.878Z,84.90
2017-10-29T23:24:07.351Z,85.30
2017-10-29T23:26:36.352Z,84.90
2017-10-29T23:29:03.831Z,84.80
2017-10-29T23:31:32.070Z,85.10
2017-10-29T23:33:59.548Z,85.10
2017-10-29T23:36:27.796Z,85.60
2017-10-29T23:38:55.374Z,85.50
2017-10-29T23:41:22.829Z,85.50
2017-10-29T23:43:50.474Z,85.50
2017-10-29T23:46:17.938Z,85.30
2017-10-29T23:48:45.418Z,85.50
2017-10-29T23:51:12.876Z,85.40
2017-10-29T23:53:41.146Z,85.70
2017-10-29T23:56:08.767Z,85.70
2017-10-29T23:58:36.243Z,85.70
